sensor_id;sensor_type;location;lat;lon;timestamp;pressure;altitude;pressure_sealevel;temperature;humidity
36048;BME280;24313;53.370;-6.596;2023-05-29T13:19:30;102427.38;;;13.40;87.78
36048;BME280;24313;53.370;-6.596;2023-05-29T13:21:57;102425.59;;;11.42;96.96
36048;BME280;24313;53.370;-6.596;2023-05-29T13:24:25;102425.56;;;10.88;91.30
36048;BME280;24313;53.370;-6.596;2023-05-29T13:26:52;102425.06;;;13.22;84.47
36048;BME280;24313;53.370;-6.596;2023-05-29T13:29:20;102430.25;;;13.85;83.09
36048;BME280;24313;53.370;-6.596;2023-05-29T13:31:47;102428.00;;;14.05;81.57
36048;BME280;24313;53.370;-6.596;2023-05-29T13:34:15;102431.46;;;14.42;82.68
36048;BME280;24313;53.370;-6.596;2023-05-29T13:36:42;102430.64;;;13.26;85.63
36048;BME280;24313;53.370;-6.596;2023-05-29T13:39:10;102426.47;;;14.72;76.89
36048;BME280;24313;53.370;-6.596;2023-05-29T13:41:37;102424.30;;;14.49;80.31
36048;BME280;24313;53.370;-6.596;2023-05-29T13:44:05;102420.27;;;14.13;78.21
36048;BME280;24313;53.370;-6.596;2023-05-29T13:46:32;102426.84;;;13.47;79.34
36048;BME280;24313;53.370;-6.596;2023-05-29T13:49:00;102427.14;;;14.81;75.47
36048;BME280;24313;53.370;-6.596;2023-05-29T13:51:27;102427.47;;;12.80;84.05
36048;BME280;24313;53.370;-6.596;2023-05-29T13:53:55;102425.56;;;13.43;79.83
36048;BME280;24313;53.370;-6.596;2023-05-29T13:56:27;102429.57;;;14.48;79.51
36048;BME280;24313;53.370;-6.596;2023-05-29T13:58:55;102424.41;;;14.88;80.28
36048;BME280;24313;53.370;-6.596;2023-05-29T14:01:22;102425.28;;;14.81;85.38
36048;BME280;24313;53.370;-6.596;2023-05-29T14:03:51;102424.10;;;14.50;85.65
36048;BME280;24313;53.370;-6.596;2023-05-29T14:06:18;102422.72;;;14.57;75.55
36048;BME280;24313;53.370;-6.596;2023-05-29T14:08:45;102423.91;;;16.64;70.29
36048;BME280;24313;53.370;-6.596;2023-05-29T14:11:13;102416.65;;;16.85;69.77
36048;BME280;24313;53.370;-6.596;2023-05-29T14:13:40;102421.17;;;18.34;68.65
36048;BME280;24313;53.370;-6.596;2023-05-29T14:16:08;102420.82;;;18.98;60.92
36048;BME280;24313;53.370;-6.596;2023-05-29T14:18:35;102423.73;;;17.12;63.96
36048;BME280;24313;53.370;-6.596;2023-05-29T14:21:03;102417.44;;;16.72;70.24
36048;BME280;24313;53.370;-6.596;2023-05-29T14:23:30;102411.14;;;18.00;61.73
36048;BME280;24313;53.370;-6.596;2023-05-29T14:25:57;102418.46;;;16.51;63.24
36048;BME280;24313;53.370;-6.596;2023-05-29T14:28:25;102414.47;;;16.14;68.94
36048;BME280;24313;53.370;-6.596;2023-05-29T14:30:52;102411.57;;;16.63;68.16
36048;BME280;24313;53.370;-6.596;2023-05-29T14:33:20;102410.24;;;17.64;67.05
36048;BME280;24313;53.370;-6.596;2023-05-29T14:35:52;102412.56;;;15.72;69.64
36048;BME280;24313;53.370;-6.596;2023-05-29T14:38:20;102418.16;;;14.66;78.58
36048;BME280;24313;53.370;-6.596;2023-05-29T14:40:47;102423.55;;;14.91;74.55
36048;BME280;24313;53.370;-6.596;2023-05-29T14:43:14;102411.59;;;16.00;71.85
36048;BME280;24313;53.370;-6.596;2023-05-29T14:45:46;102408.79;;;15.61;75.97
36048;BME280;24313;53.370;-6.596;2023-05-29T14:48:14;102412.86;;;13.72;82.16
36048;BME280;24313;53.370;-6.596;2023-05-29T14:50:42;102415.10;;;14.30;87.23
36048;BME280;24313;53.370;-6.596;2023-05-29T14:53:09;102417.59;;;15.35;76.56
36048;BME280;24313;53.370;-6.596;2023-05-29T14:55:36;102419.95;;;13.63;82.51
36048;BME280;24313;53.370;-6.596;2023-05-29T14:58:04;102408.17;;;17.30;71.74
36048;BME280;24313;53.370;-6.596;2023-05-29T15:00:31;102412.10;;;17.80;64.98
36048;BME280;24313;53.370;-6.596;2023-05-29T15:02:59;102411.68;;;14.69;76.16
36048;BME280;24313;53.370;-6.596;2023-05-29T15:05:26;102403.54;;;16.26;70.25
36048;BME280;24313;53.370;-6.596;2023-05-29T15:07:54;102409.73;;;16.76;66.68
36048;BME280;24313;53.370;-6.596;2023-05-29T15:10:21;102399.35;;;16.78;67.25
36048;BME280;24313;53.370;-6.596;2023-05-29T15:12:48;102397.06;;;17.73;64.80
36048;BME280;24313;53.370;-6.596;2023-05-29T15:15:16;102400.77;;;15.46;68.10
36048;BME280;24313;53.370;-6.596;2023-05-29T15:17:43;102399.13;;;15.92;67.21
36048;BME280;24313;53.370;-6.596;2023-05-29T15:20:11;102398.95;;;16.20;70.70
36048;BME280;24313;53.370;-6.596;2023-05-29T15:22:38;102402.78;;;16.30;72.73
36048;BME280;24313;53.370;-6.596;2023-05-29T15:25:06;102404.08;;;15.69;69.42
36048;BME280;24313;53.370;-6.596;2023-05-29T15:27:34;102404.20;;;15.82;73.18
36048;BME280;24313;53.370;-6.596;2023-05-29T15:30:10;102398.45;;;16.64;66.41
36048;BME280;24313;53.370;-6.596;2023-05-29T15:32:38;102397.84;;;14.84;77.34
36048;BME280;24313;53.370;-6.596;2023-05-29T15:35:07;102390.23;;;15.65;70.55
36048;BME280;24313;53.370;-6.596;2023-05-29T15:37:35;102393.26;;;17.85;62.22
36048;BME280;24313;53.370;-6.596;2023-05-29T15:40:03;102394.79;;;16.25;69.67
36048;BME280;24313;53.370;-6.596;2023-05-29T15:42:31;102394.50;;;17.53;62.68
36048;BME280;24313;53.370;-6.596;2023-05-29T15:44:59;102404.33;;;15.92;67.75
36048;BME280;24313;53.370;-6.596;2023-05-29T15:47:26;102404.58;;;14.90;72.27
36048;BME280;24313;53.370;-6.596;2023-05-29T15:49:54;102406.79;;;14.05;78.67
36048;BME280;24313;53.370;-6.596;2023-05-29T15:52:21;102401.75;;;14.96;76.31
36048;BME280;24313;53.370;-6.596;2023-05-29T15:54:49;102403.34;;;16.55;69.91
36048;BME280;24313;53.370;-6.596;2023-05-29T15:57:17;102394.97;;;16.38;69.17
36048;BME280;24313;53.370;-6.596;2023-05-29T15:59:44;102389.03;;;16.62;68.04
36048;BME280;24313;53.370;-6.596;2023-05-29T16:02:12;102391.49;;;17.82;63.51
36048;BME280;24313;53.370;-6.596;2023-05-29T16:04:39;102393.80;;;18.01;70.81
36048;BME280;24313;53.370;-6.596;2023-05-29T16:07:07;102389.06;;;19.25;60.61
36048;BME280;24313;53.370;-6.596;2023-05-29T16:09:35;102392.91;;;16.80;62.82
36048;BME280;24313;53.370;-6.596;2023-05-29T16:12:02;102387.70;;;18.40;62.38
36048;BME280;24313;53.370;-6.596;2023-05-29T16:14:29;102396.10;;;14.94;75.32
36048;BME280;24313;53.370;-6.596;2023-05-29T16:16:57;102395.97;;;14.57;77.35
36048;BME280;24313;53.370;-6.596;2023-05-29T16:19:24;102402.63;;;14.46;75.83
36048;BME280;24313;53.370;-6.596;2023-05-29T16:21:52;102398.22;;;14.56;77.38
36048;BME280;24313;53.370;-6.596;2023-05-29T16:24:19;102400.66;;;14.20;80.32
36048;BME280;24313;53.370;-6.596;2023-05-29T16:26:47;102405.44;;;14.14;84.15
36048;BME280;24313;53.370;-6.596;2023-05-29T16:29:15;102399.64;;;13.53;83.29
36048;BME280;24313;53.370;-6.596;2023-05-29T16:31:42;102400.87;;;11.53;92.81
36048;BME280;24313;53.370;-6.596;2023-05-29T16:34:10;102399.45;;;13.13;93.99
36048;BME280;24313;53.370;-6.596;2023-05-29T16:36:38;102401.22;;;13.42;88.51
36048;BME280;24313;53.370;-6.596;2023-05-29T16:39:04;102397.86;;;12.12;91.17
36048;BME280;24313;53.370;-6.596;2023-05-29T16:41:31;102396.12;;;13.96;90.85
36048;BME280;24313;53.370;-6.596;2023-05-29T16:44:04;102404.16;;;12.68;89.02
36048;BME280;24313;53.370;-6.596;2023-05-29T16:46:31;102399.59;;;11.12;94.10
36048;BME280;24313;53.370;-6.596;2023-05-29T16:48:59;102400.24;;;12.84;86.46
36048;BME280;24313;53.370;-6.596;2023-05-29T16:51:31;102396.47;;;12.68;95.11
36048;BME280;24313;53.370;-6.596;2023-05-29T16:53:58;102401.08;;;12.89;91.98
36048;BME280;24313;53.370;-6.596;2023-05-29T16:56:25;102402.46;;;13.02;87.20
36048;BME280;24313;53.370;-6.596;2023-05-29T16:58:52;102395.17;;;13.18;87.32
36048;BME280;24313;53.370;-6.596;2023-05-29T17:01:19;102387.17;;;13.74;81.93
36048;BME280;24313;53.370;-6.596;2023-05-29T17:03:46;102392.18;;;12.82;88.27
36048;BME280;24313;53.370;-6.596;2023-05-29T17:06:14;102393.34;;;13.42;87.70
36048;BME280;24313;53.370;-6.596;2023-05-29T17:08:41;102394.37;;;11.47;95.12
36048;BME280;24313;53.370;-6.596;2023-05-29T17:11:21;102392.25;;;13.14;90.88
36048;BME280;24313;53.370;-6.596;2023-05-29T17:13:50;102396.51;;;12.27;91.46
36048;BME280;24313;53.370;-6.596;2023-05-29T17:16:18;102394.18;;;12.58;89.02
36048;BME280;24313;53.370;-6.596;2023-05-29T17:18:45;102392.77;;;11.90;91.81
36048;BME280;24313;53.370;-6.596;2023-05-29T17:21:12;102387.32;;;12.13;93.27
36048;BME280;24313;53.370;-6.596;2023-05-29T17:23:39;102393.39;;;12.34;92.38
36048;BME280;24313;53.370;-6.596;2023-05-29T17:26:06;102386.15;;;11.69;95.97
36048;BME280;24313;53.370;-6.596;2023-05-29T17:28:34;102389.81;;;12.18;91.87
36048;BME280;24313;53.370;-6.596;2023-05-29T17:31:01;102390.47;;;11.86;86.41
36048;BME280;24313;53.370;-6.596;2023-05-29T17:33:33;102382.65;;;11.99;88.64
36048;BME280;24313;53.370;-6.596;2023-05-29T17:36:01;102390.08;;;12.01;94.60
36048;BME280;24313;53.370;-6.596;2023-05-29T17:38:29;102387.39;;;13.15;88.88
36048;BME280;24313;53.370;-6.596;2023-05-29T17:40:56;102395.71;;;11.70;98.79
36048;BME280;24313;53.370;-6.596;2023-05-29T17:43:24;102386.16;;;12.33;93.91
36048;BME280;24313;53.370;-6.596;2023-05-29T17:45:56;102387.71;;;12.19;94.73
36048;BME280;24313;53.370;-6.596;2023-05-29T17:48:23;102394.17;;;11.85;98.02
36048;BME280;24313;53.370;-6.596;2023-05-29T17:50:50;102388.54;;;12.55;89.50
36048;BME280;24313;53.370;-6.596;2023-05-29T17:53:18;102388.86;;;11.67;95.23
36048;BME280;24313;53.370;-6.596;2023-05-29T17:55:44;102392.12;;;11.91;91.03
36048;BME280;24313;53.370;-6.596;2023-05-29T17:58:11;102388.67;;;11.70;93.84
36048;BME280;24313;53.370;-6.596;2023-05-29T18:00:38;102389.86;;;11.79;94.41
36048;BME280;24313;53.370;-6.596;2023-05-29T18:03:06;102386.35;;;12.23;92.44
36048;BME280;24313;53.370;-6.596;2023-05-29T18:05:39;102387.54;;;12.37;95.90
36048;BME280;24313;53.370;-6.596;2023-05-29T18:08:06;102390.77;;;12.32;88.46
36048;BME280;24313;53.370;-6.596;2023-05-29T18:10:32;102392.90;;;11.17;92.45
36048;BME280;24313;53.370;-6.596;2023-05-29T18:12:59;102397.02;;;11.24;93.14
36048;BME280;24313;53.370;-6.596;2023-05-29T18:15:26;102398.87;;;10.95;95.94
36048;BME280;24313;53.370;-6.596;2023-05-29T18:17:53;102389.37;;;10.47;95.25
36048;BME280;24313;53.370;-6.596;2023-05-29T18:20:20;102388.22;;;11.77;94.58
36048;BME280;24313;53.370;-6.596;2023-05-29T18:22:48;102392.80;;;11.50;98.18
36048;BME280;24313;53.370;-6.596;2023-05-29T18:25:15;102385.89;;;12.19;91.04
36048;BME280;24313;53.370;-6.596;2023-05-29T18:27:43;102387.67;;;11.82;91.54
36048;BME280;24313;53.370;-6.596;2023-05-29T18:30:12;102391.55;;;11.84;95.14
36048;BME280;24313;53.370;-6.596;2023-05-29T18:32:39;102389.23;;;12.04;93.88
36048;BME280;24313;53.370;-6.596;2023-05-29T18:35:07;102395.02;;;10.88;100.00
36048;BME280;24313;53.370;-6.596;2023-05-29T18:37:35;102389.64;;;11.74;100.00
36048;BME280;24313;53.370;-6.596;2023-05-29T18:40:08;102395.50;;;10.96;100.00
36048;BME280;24313;53.370;-6.596;2023-05-29T18:42:35;102400.32;;;9.95;100.00
36048;BME280;24313;53.370;-6.596;2023-05-29T18:45:03;102401.30;;;10.63;100.00
36048;BME280;24313;53.370;-6.596;2023-05-29T18:47:30;102405.19;;;11.35;99.60
36048;BME280;24313;53.370;-6.596;2023-05-29T18:49:57;102403.71;;;11.04;100.00
36048;BME280;24313;53.370;-6.596;2023-05-29T18:52:25;102404.04;;;11.69;96.85
36048;BME280;24313;53.370;-6.596;2023-05-29T18:54:58;102401.92;;;11.86;95.17
36048;BME280;24313;53.370;-6.596;2023-05-29T18:57:25;102400.48;;;11.48;99.99
36048;BME280;24313;53.370;-6.596;2023-05-29T18:59:53;102401.05;;;11.08;100.00
36048;BME280;24313;53.370;-6.596;2023-05-29T19:02:20;102401.17;;;9.86;100.00
36048;BME280;24313;53.370;-6.596;2023-05-29T19:04:46;102393.35;;;11.91;100.00
36048;BME280;24313;53.370;-6.596;2023-05-29T19:07:14;102387.15;;;11.87;95.75
36048;BME280;24313;53.370;-6.596;2023-05-29T19:09:46;102389.69;;;11.59;100.00
36048;BME280;24313;53.370;-6.596;2023-05-29T19:12:13;102392.00;;;11.40;93.64
36048;BME280;24313;53.370;-6.596;2023-05-29T19:14:41;102389.56;;;11.58;95.38
36048;BME280;24313;53.370;-6.596;2023-05-29T19:17:09;102387.88;;;11.55;99.26
36048;BME280;24313;53.370;-6.596;2023-05-29T19:19:41;102384.41;;;11.85;99.15
36048;BME280;24313;53.370;-6.596;2023-05-29T19:22:09;102384.46;;;11.77;94.41
36048;BME280;24313;53.370;-6.596;2023-05-29T19:24:36;102391.87;;;11.25;98.79
36048;BME280;24313;53.370;-6.596;2023-05-29T19:27:03;102390.11;;;11.38;99.14
36048;BME280;24313;53.370;-6.596;2023-05-29T19:29:31;102391.60;;;11.55;99.74
36048;BME280;24313;53.370;-6.596;2023-05-29T19:31:58;102388.08;;;11.32;97.44
36048;BME280;24313;53.370;-6.596;2023-05-29T19:34:25;102389.04;;;11.91;97.27
36048;BME280;24313;53.370;-6.596;2023-05-29T19:36:52;102390.08;;;11.92;94.18
36048;BME280;24313;53.370;-6.596;2023-05-29T19:39:19;102389.29;;;11.97;97.77
36048;BME280;24313;53.370;-6.596;2023-05-29T19:41:46;102392.02;;;11.41;98.00
36048;BME280;24313;53.370;-6.596;2023-05-29T19:44:14;102390.93;;;11.58;98.67
36048;BME280;24313;53.370;-6.596;2023-05-29T19:46:41;102395.47;;;11.46;97.25
36048;BME280;24313;53.370;-6.596;2023-05-29T19:49:08;102389.70;;;12.01;95.23
36048;BME280;24313;53.370;-6.596;2023-05-29T19:51:36;102391.67;;;12.25;97.17
36048;BME280;24313;53.370;-6.596;2023-05-29T19:54:03;102391.82;;;12.21;95.26
36048;BME280;24313;53.370;-6.596;2023-05-29T19:56:30;102389.65;;;12.06;100.00
36048;BME280;24313;53.370;-6.596;2023-05-29T19:58:57;102393.45;;;12.42;95.02
36048;BME280;24313;53.370;-6.596;2023-05-29T20:01:34;102397.28;;;10.88;100.00
36048;BME280;24313;53.370;-6.596;2023-05-29T20:04:01;102398.22;;;12.78;95.29
36048;BME280;24313;53.370;-6.596;2023-05-29T20:06:33;102397.36;;;12.14;99.93
36048;BME280;24313;53.370;-6.596;2023-05-29T20:09:01;102397.26;;;11.96;98.72
36048;BME280;24313;53.370;-6.596;2023-05-29T20:11:33;102397.64;;;12.07;99.55
36048;BME280;24313;53.370;-6.596;2023-05-29T20:14:01;102402.65;;;11.64;100.00
36048;BME280;24313;53.370;-6.596;2023-05-29T20:16:28;102404.47;;;11.82;100.00
36048;BME280;24313;53.370;-6.596;2023-05-29T20:18:55;102408.48;;;9.99;100.00
36048;BME280;24313;53.370;-6.596;2023-05-29T20:21:22;102412.82;;;10.94;100.00
36048;BME280;24313;53.370;-6.596;2023-05-29T20:23:50;102413.53;;;10.91;100.00
36048;BME280;24313;53.370;-6.596;2023-05-29T20:26:18;102407.98;;;11.48;100.00
36048;BME280;24313;53.370;-6.596;2023-05-29T20:28:45;102407.89;;;11.88;100.00
36048;BME280;24313;53.370;-6.596;2023-05-29T20:31:12;102405.69;;;11.71;100.00
36048;BME280;24313;53.370;-6.596;2023-05-29T20:33:42;102405.10;;;13.00;99.69
36048;BME280;24313;53.370;-6.596;2023-05-29T20:36:09;102407.92;;;12.51;100.00
36048;BME280;24313;53.370;-6.596;2023-05-29T20:38:37;102411.30;;;13.33;95.53
36048;BME280;24313;53.370;-6.596;2023-05-29T20:41:05;102414.28;;;13.25;97.80
36048;BME280;24313;53.370;-6.596;2023-05-29T20:43:32;102415.77;;;12.65;100.00
36048;BME280;24313;53.370;-6.596;2023-05-29T20:45:59;102417.92;;;13.33;92.82
36048;BME280;24313;53.370;-6.596;2023-05-29T20:48:26;102420.52;;;12.18;98.24
36048;BME280;24313;53.370;-6.596;2023-05-29T20:50:53;102420.19;;;13.29;93.82
36048;BME280;24313;53.370;-6.596;2023-05-29T20:53:21;102423.43;;;12.31;99.29
36048;BME280;24313;53.370;-6.596;2023-05-29T20:55:49;102429.27;;;12.75;100.00
36048;BME280;24313;53.370;-6.596;2023-05-29T20:58:16;102429.68;;;12.70;99.98
36048;BME280;24313;53.370;-6.596;2023-05-29T21:00:43;102431.83;;;12.54;100.00
36048;BME280;24313;53.370;-6.596;2023-05-29T21:03:10;102434.64;;;12.62;100.00
36048;BME280;24313;53.370;-6.596;2023-05-29T21:05:38;102435.26;;;13.07;98.15
36048;BME280;24313;53.370;-6.596;2023-05-29T21:08:05;102436.71;;;12.42;100.00
36048;BME280;24313;53.370;-6.596;2023-05-29T21:10:32;102439.46;;;11.56;100.00
36048;BME280;24313;53.370;-6.596;2023-05-29T21:12:59;102447.11;;;11.54;100.00
36048;BME280;24313;53.370;-6.596;2023-05-29T21:15:26;102443.49;;;12.19;100.00
36048;BME280;24313;53.370;-6.596;2023-05-29T21:17:58;102443.03;;;12.09;100.00
36048;BME280;24313;53.370;-6.596;2023-05-29T21:20:26;102442.02;;;12.48;100.00
36048;BME280;24313;53.370;-6.596;2023-05-29T21:22:53;102444.83;;;12.04;100.00
36048;BME280;24313;53.370;-6.596;2023-05-29T21:25:20;102443.55;;;12.77;100.00
36048;BME280;24313;53.370;-6.596;2023-05-29T21:27:47;102443.87;;;11.80;100.00
36048;BME280;24313;53.370;-6.596;2023-05-29T21:30:15;102443.38;;;12.70;100.00
36048;BME280;24313;53.370;-6.596;2023-05-29T21:32:42;102443.25;;;11.87;100.00
36048;BME280;24313;53.370;-6.596;2023-05-29T21:35:15;102446.20;;;12.22;100.00
36048;BME280;24313;53.370;-6.596;2023-05-29T21:37:42;102449.01;;;11.86;100.00
36048;BME280;24313;53.370;-6.596;2023-05-29T21:40:09;102448.00;;;11.12;100.00
36048;BME280;24313;53.370;-6.596;2023-05-29T21:42:37;102449.34;;;11.12;100.00
36048;BME280;24313;53.370;-6.596;2023-05-29T21:45:06;102448.81;;;11.46;100.00
36048;BME280;24313;53.370;-6.596;2023-05-29T21:47:33;102446.36;;;11.56;100.00
36048;BME280;24313;53.370;-6.596;2023-05-29T21:50:01;102451.94;;;11.03;100.00
36048;BME280;24313;53.370;-6.596;2023-05-29T21:52:28;102447.46;;;11.77;100.00
36048;BME280;24313;53.370;-6.596;2023-05-29T21:54:55;102443.12;;;12.86;100.00
36048;BME280;24313;53.370;-6.596;2023-05-29T21:57:22;102441.43;;;12.02;100.00
36048;BME280;24313;53.370;-6.596;2023-05-29T21:59:49;102445.47;;;11.16;100.00
36048;BME280;24313;53.370;-6.596;2023-05-29T22:02:16;102448.57;;;10.81;100.00
36048;BME280;24313;53.370;-6.596;2023-05-29T22:04:43;102447.25;;;12.01;100.00
36048;BME280;24313;53.370;-6.596;2023-05-29T22:07:11;102447.79;;;11.64;100.00
36048;BME280;24313;53.370;-6.596;2023-05-29T22:09:38;102459.13;;;11.49;100.00
36048;BME280;24313;53.370;-6.596;2023-05-29T22:12:06;102456.46;;;11.71;100.00
36048;BME280;24313;53.370;-6.596;2023-05-29T22:14:33;102457.02;;;11.88;100.00
36048;BME280;24313;53.370;-6.596;2023-05-29T22:17:00;102452.92;;;12.49;100.00
36048;BME280;24313;53.370;-6.596;2023-05-29T22:19:27;102460.94;;;10.67;100.00
36048;BME280;24313;53.370;-6.596;2023-05-29T22:21:54;102454.19;;;11.83;100.00
36048;BME280;24313;53.370;-6.596;2023-05-29T22:24:21;102451.83;;;11.82;100.00
36048;BME280;24313;53.370;-6.596;2023-05-29T22:26:48;102454.42;;;11.70;100.00
36048;BME280;24313;53.370;-6.596;2023-05-29T22:29:15;102454.21;;;11.43;100.00
36048;BME280;24313;53.370;-6.596;2023-05-29T22:31:42;102455.10;;;12.49;100.00
36048;BME280;24313;53.370;-6.596;2023-05-29T22:34:09;102453.33;;;12.73;100.00
36048;BME280;24313;53.370;-6.596;2023-05-29T22:36:36;102454.42;;;12.39;100.00
36048;BME280;24313;53.370;-6.596;2023-05-29T22:39:03;102456.60;;;11.29;100.00
36048;BME280;24313;53.370;-6.596;2023-05-29T22:41:30;102459.32;;;11.35;100.00
36048;BME280;24313;53.370;-6.596;2023-05-29T22:43:58;102462.23;;;10.18;100.00
36048;BME280;24313;53.370;-6.596;2023-05-29T22:46:25;102462.16;;;9.02;100.00
36048;BME280;24313;53.370;-6.596;2023-05-29T22:48:52;102460.14;;;10.27;100.00
36048;BME280;24313;53.370;-6.596;2023-05-29T22:51:19;102459.95;;;11.48;100.00
36048;BME280;24313;53.370;-6.596;2023-05-29T22:53:46;102456.77;;;11.12;100.00
36048;BME280;24313;53.370;-6.596;2023-05-29T22:56:14;102456.06;;;10.82;100.00
36048;BME280;24313;53.370;-6.596;2023-05-29T22:58:41;102455.01;;;9.76;100.00
36048;BME280;24313;53.370;-6.596;2023-05-29T23:01:09;102454.71;;;9.74;100.00
36048;BME280;24313;53.370;-6.596;2023-05-29T23:03:35;102456.82;;;10.30;100.00
36048;BME280;24313;53.370;-6.596;2023-05-29T23:06:03;102454.28;;;10.05;100.00
36048;BME280;24313;53.370;-6.596;2023-05-29T23:08:30;102453.13;;;9.79;100.00
36048;BME280;24313;53.370;-6.596;2023-05-29T23:10:57;102450.44;;;11.26;100.00
36048;BME280;24313;53.370;-6.596;2023-05-29T23:13:24;102451.36;;;11.30;100.00
36048;BME280;24313;53.370;-6.596;2023-05-29T23:16:01;102455.72;;;10.80;100.00
36048;BME280;24313;53.370;-6.596;2023-05-29T23:18:29;102461.58;;;10.95;100.00
36048;BME280;24313;53.370;-6.596;2023-05-29T23:20:56;102462.52;;;10.15;100.00
36048;BME280;24313;53.370;-6.596;2023-05-29T23:23:24;102462.63;;;10.28;100.00
36048;BME280;24313;53.370;-6.596;2023-05-29T23:25:56;102459.69;;;10.12;100.00
36048;BME280;24313;53.370;-6.596;2023-05-29T23:28:23;102459.34;;;10.75;100.00
36048;BME280;24313;53.370;-6.596;2023-05-29T23:30:51;102460.00;;;10.04;100.00
36048;BME280;24313;53.370;-6.596;2023-05-29T23:33:19;102459.99;;;10.26;100.00
36048;BME280;24313;53.370;-6.596;2023-05-29T23:35:46;102464.25;;;10.23;100.00
36048;BME280;24313;53.370;-6.596;2023-05-29T23:38:13;102465.84;;;9.73;100.00
36048;BME280;24313;53.370;-6.596;2023-05-29T23:40:40;102469.75;;;9.43;100.00
36048;BME280;24313;53.370;-6.596;2023-05-29T23:43:08;102468.96;;;9.30;100.00
36048;BME280;24313;53.370;-6.596;2023-05-29T23:45:34;102473.52;;;10.36;100.00
36048;BME280;24313;53.370;-6.596;2023-05-29T23:48:02;102470.81;;;9.49;100.00
36048;BME280;24313;53.370;-6.596;2023-05-29T23:50:29;102469.95;;;11.11;100.00
36048;BME280;24313;53.370;-6.596;2023-05-29T23:52:56;102471.37;;;10.22;100.00
36048;BME280;24313;53.370;-6.596;2023-05-29T23:55:23;102467.27;;;10.77;100.00
36048;BME280;24313;53.370;-6.596;2023-05-29T23:57:50;102466.89;;;10.16;100.00
